Chapelwood Chase 5K 2019 oa

2019 - Chapelwood Chase 5K CHAPELWOOD CHASE 5K

2019 - Chapelwood Chase 5K

Overall Finish List

June 22, 2019


Results By Classic Race Services, LLC Classic Race Services

CHAPELWOOD CHASE 5K

Place Name City Bib No Age Gender Age Group Total Time Pace
1 Jeremy Peacock Athens GA 280 42 M 1 40-44 21:11.8 6:50/M
2 Melissa Landers-Potts Watkinsville GA 1682 51 F 1 50-54 21:18.7 6:52/M
3 Gregory Sue Augusta GA 275 28 M 1 25-29 21:47.2 7:02/M
4 Casey Mull Athens GA 298 35 M 1 35-39 22:05.6 7:07/M
5 Jacob Thornburg Lakewood WA 296 42 M 2 40-44 22:26.0 7:14/M
6 Nils Okeson Athens GA 508 25 M 2 25-29 22:33.3 7:16/M
7 Beau Mason Watkinsville GA 300 33 M 1 30-34 22:36.6 7:17/M
8 Catherine Peacock Athens GA 511 35 F 1 35-39 22:44.0 7:20/M
9 Reid Peacock Athens GA 284 37 M 2 35-39 23:09.9 7:28/M
10 David Beeland Winder GA 457 50 M 1 50-54 23:49.6 7:41/M
11 Antoine Orsley Hartwell GA 288 41 M 3 40-44 24:10.5 7:48/M
12 Jack Renfroe Auburn AL 295 21 M 1 20-24 24:17.4 7:50/M
13 Emily Lester Mitchell GA 495 16 F 1 15-19 24:30.7 7:54/M
14 Taylor Cook Athens GA 299 32 M 2 30-34 24:53.3 8:02/M
15 Garrett Lester Mitchell GA 496 18 M 1 15-19 26:00.1 8:23/M
16 Mark Mahaffey Athens GA 504 57 M 1 55-59 26:20.4 8:30/M
17 Marie Johnson Arnoldsville GA 279 38 F 2 35-39 26:26.3 8:32/M
18 Patricia Brooks Athens GA 463 37 F 3 35-39 26:46.0 8:38/M
19 Bran Parker Watkinsville GA 282 52 M 2 50-54 26:46.8 8:38/M
20 Susan Arnold Athens GA 450 31 F 1 30-34 27:03.8 8:44/M
21 Jane Quandt Athens GA 512 59 F 1 55-59 27:04.1 8:44/M
22 Melinda Black Clarkesville GA 271 53 F 2 50-54 27:17.8 8:48/M
23 Marybeth Forwood Bishop GA 480 55 F 2 55-59 27:25.1 8:51/M
24 Jim Schulte Athens GA 292 60 M 1 60-64 27:36.8 8:54/M
25 Janet Muse Athens GA 290 58 F 3 55-59 27:39.9 8:55/M
26 Booker T Orsley Dewy Rose GA 289 65 M 1 65-69 27:47.1 8:58/M
27 Mara Nance Augusta GA 278 60 F 1 60-64 28:46.8 9:17/M
28 Cynthia Johnston Turner Athens GA 492 56 F 4 55-59 28:47.3 9:17/M
29 Dave Eveland Athens GA 285 51 M 3 50-54 28:56.5 9:20/M
30 Kurt Crews St Augustine FL 471 29 M 3 25-29 29:16.6 9:26/M
31 Wheels Johnson Milledgeville GA 491 56 M 2 55-59 29:27.8 9:30/M
32 Austin Schulte Athens GA 291 24 M 2 20-24 29:41.7 9:35/M
33 Hawk Hagebak Jefferson GA 283 52 M 4 50-54 29:56.2 9:39/M
34 Carol Perrin Athens GA 1683 40 F 1 40-44 29:59.4 9:40/M
35 Matt Brewster Athens GA 462 35 M 3 35-39 30:12.5 9:45/M
36 John Hale Jefferson GA 482 52 M 5 50-54 30:32.2 9:51/M
37 Derek Jesweak Bogart GA 294 47 M 1 45-49 30:32.6 9:51/M
38 Jared Robinson Hull GA 286 43 M 4 40-44 30:37.6 9:53/M
39 Tammy Parker Watkinsville GA 281 51 F 3 50-54 30:58.6 9:59/M
40 Rosie Barber Nicholson GA 452 51 F 4 50-54 31:09.0 10:03/M
41 Bonnie Short Statham GA 515 49 F 1 45-49 31:15.6 10:05/M
42 Larry Crews St Augustine FL 472 54 M 6 50-54 31:50.4 10:16/M
43 Carey Hornsby Athens GA 1684 36 F 4 35-39 32:46.5 10:34/M
44 Ed Wysong Hartwell GA 287 72 M 1 70-74 32:54.1 10:37/M
45 Christian Holcomb Athens GA 486 21 M 3 20-24 33:21.9 10:45/M
46 Patti Patterson Conyers GA 273 63 F 2 60-64 33:49.4 10:55/M
47 Amanda Page Watkinsville GA 509 38 F 5 35-39 33:49.9 10:55/M
48 Victor Lester Mitchell GA 498 46 M 2 45-49 33:50.3 10:55/M
49 Jessica Beehner Jacksonville FL 455 40 F 2 40-44 34:08.3 11:01/M
50 Michael Taylor Gainesville GA 274 64 M 2 60-64 34:32.0 11:08/M
51 Richard Harrison Commerce GA 297 68 M 2 65-69 35:02.7 11:18/M
52 Joe Waters Covington GA 277 77 M 1 75-99 35:29.7 11:27/M
53 Dani Crews Saint Augustine FL 470 26 F 1 25-29 35:33.4 11:28/M
54 Katie Parks Athens GA 510 35 F 6 35-39 35:42.9 11:31/M
55 Lisa Lester Mitchell GA 497 45 F 2 45-49 36:53.7 11:54/M
56 Teresa Dove Danielsville GA 477 56 F 5 55-59 37:00.1 11:56/M
57 Alan White Gainesville GA 523 61 M 3 60-64 37:19.6 12:02/M
58 Dawn Huberti Comer GA 490 51 F 5 50-54 38:11.9 12:19/M
59 Jessie Croft Athens GA 474 29 F 2 25-29 40:29.6 13:04/M
60 Crystal Dejesus Comer GA 476 45 F 3 45-49 40:33.4 13:05/M
61 James Chafin Athens GA 468 45 M 3 45-49 40:47.6 13:09/M
62 Tammy Sprayberry Temple GA 516 47 F 4 45-49 40:54.8 13:12/M
63 Sidney Holcomb Macon GA 488 50 M 7 50-54 40:55.3 13:12/M
64 Christina Cotsakis Cordon Athens GA 469 26 F 3 25-29 42:31.6 13:43/M
65 Vicky Werner Snellville GA 522 67 F 1 65-69 43:00.0 13:52/M
66 Sondra Strickland Nicholson GA 517 56 F 6 55-59 47:08.5 15:12/M
67 Justin Davidson Statham GA 475 41 M 5 40-44 47:13.3 15:14/M
68 Fran Blackburn Statham GA 460 61 F 3 60-64 47:31.0 15:20/M
69 David Hilton Blue Ridge GA 485 77 M 2 75-99 48:15.2 15:34/M
70 Steve Strickland Augusta GA 276 66 M 3 65-69 49:54.4 16:06/M
71 Brett Burch Winder GA 1685 8 M 1 0-10 49:54.8 16:06/M
72 Finn McGinnis Athens GA 505 16 M 2 15-19 50:00.1 16:08/M
73 Penni Crews St Augustine FL 473 59 F 7 55-59 50:44.1 16:22/M
74 James Gray Athens GA 481 65 M 4 65-69 50:53.2 16:25/M
75 Carol Bromwell Athens GA 272 62 F 4 60-64 52:21.4 16:53/M
76 Mickey Montevideo Bogart GA 507 59 F 8 55-59 53:34.2 17:17/M
77 Cyndi Logan Statham GA 500 39 F 7 35-39 53:35.5 17:17/M
78 Lynetta Venable Nicholson GA 521 54 F 6 50-54 54:00.8 17:25/M
79 Carolyn Cundiff Athens GA 1687 70 F 1 70-74 55:09.5 17:47/M
80 Alice Eaves Athens GA 478 66 F 2 65-69 55:52.3 18:01/M
81 Tom Turner Athens GA 519 36 M 4 35-39 56:44.0 18:18/M
82 Valerie Elder Athens GA 479 71 F 2 70-74 57:35.6 18:35/M
83 Heather Burch 1686 42 F 3 40-44 57:57.8 18:42/M
84 Linda Woods Athens GA 525 75 F 1 75-99 58:19.6 18:49/M